Walton, KY

3:18 PM EDT on September 19, 2014 (GMT -0400)
K4JRU | Change Station
CLOSE
Current Station
Personal Weather Station
Location: Independence, KY
Elevation: 892 ft
Nearby Weather Stations

Elev 892 ft 38.97 °N, 84.60 °W | Updated 22 minutes ago

Clear
Clear
74.5 °F
Feels Like 77 °F
N
1.0
Wind Variable Wind from SE
Gusts 7.0 mph

Today
High -- | Low -- °F
--% Chance of Precip.
Yesterday
High -- | Low -- °F
Precip. -- in
7:23 AM 7:40 PM
Waning Crescent, 17% visible
Pressure 30.11 in
Visibility 10.0 miles
Clouds Few 25000 ft
Heat Index 77 °F
Dew Point 55 °F
Humidity 51%
Rainfall -999.00 in
Snow Depth Not available.
UV 7 out of 12
Pollen 4.40 out of 12
Air Quality Not available.
Flu Activity Not available.
METAR KCVG 191852Z 15006KT 10SM FEW250 23/09 A3013 RMK AO2 SLP195 T02280089

More Conditions Fewer Conditions

Pressure 30.11 in
Visibility 10.0 miles
Clouds Few 25000 ft
Heat Index 77 °F
Dew Point 55 °F
Humidity 51%
Rainfall -999.00 in
Snow Depth Not available.
UV 7 out of 12
Pollen 4.40 out of 12
Air Quality Not available.
Flu Activity Not available.
METAR KCVG 191852Z 15006KT 10SM FEW250 23/09 A3013 RMK AO2 SLP195 T02280089

More Conditions Fewer Conditions

10-Day Weather Forecast

Almanac

Astronomy

Sep. 19, 2014 Rise Set
Actual Time 7:23 AM EDT 7:40 PM EDT
Civil Twilight 6:56 AM EDT 8:06 PM EDT
Nautical Twilight 6:25 AM EDT 8:37 PM EDT
Astronomical Twilight 5:53 AM EDT 9:09 PM EDT
Moon 3:09 AM EDT 5:06 PM EDT
Length of Visible Light 13h 10m
Length of Day
12h 16m
Tomorrow will be 2m 31s shorter.
Waning Crescent, 17% of the Moon is Illuminated
Today
Waning Crescent
Sep 24
New
Oct 1
First Quarter
Oct 8
Full
Oct 15
Last Quarter

Today's Extremes

State Highs State Lows

Community

WunderPhotos

Upload Photos

1,754,685 photos uploaded!

WunderBlogs® & News

Nearby

Snow Depth

Station Depth Elevation
No new snow has been reported.

Earthquake Activity

City Distance Mag. Time & Date
No recent earthquake activity has been reported nearby.
Minimum magnitude displayed is 2.5.

Coastal Water Temperatures

Place Temperature
No Stations Reporting

Nearby Weather Stations